Time;durP1;ratioP1;P1;durP2;ratioP2;P2;SDS_P1;SDS_P2;PMS_P1;PMS_P2;Temp;Humidity;BMP_temperature;BMP_pressure;BME280_temperature;BME280_humidity;BME280_pressure;Samples;Min_cycle;Max_cycle;Signal;HPM_P1;HPM_P2
2022/05/09 00:01:40;;;;;;;13.10;11.20;;;13.90;87.90;;;;;;5014379;28;20572;-54
2022/05/09 00:04:08;;;;;;;13.67;12.03;;;13.90;87.00;;;;;;5014256;28;20522;-53
2022/05/09 00:06:35;;;;;;;13.67;11.17;;;13.80;87.20;;;;;;4989516;28;20513;-53
2022/05/09 00:09:02;;;;;;;14.17;12.50;;;13.80;87.90;;;;;;4973976;28;20488;-53
2022/05/09 00:11:28;;;;;;;14.47;13.00;;;13.70;88.40;;;;;;4991466;28;20973;-53
2022/05/09 00:13:55;;;;;;;13.67;12.27;;;13.70;88.30;;;;;;4992138;28;20546;-53
2022/05/09 00:16:22;;;;;;;13.53;11.70;;;13.70;88.60;;;;;;4994097;28;20484;-53
2022/05/09 00:18:49;;;;;;;11.07;9.90;;;13.60;88.70;;;;;;4984453;28;20493;-53
2022/05/09 00:21:17;;;;;;;11.47;10.27;;;13.60;87.40;;;;;;5000975;28;20539;-53
2022/05/09 00:23:43;;;;;;;11.90;10.80;;;13.50;86.80;;;;;;4997306;28;20485;-53
2022/05/09 00:26:10;;;;;;;10.83;9.40;;;13.40;86.90;;;;;;4999413;28;20553;-53
2022/05/09 00:28:37;;;;;;;11.53;10.33;;;13.40;87.00;;;;;;4988639;28;20606;-53
2022/05/09 00:31:04;;;;;;;14.20;9.50;;;13.30;87.10;;;;;;5002723;28;20486;-54
2022/05/09 00:33:31;;;;;;;14.93;10.00;;;13.20;86.90;;;;;;4998406;28;20484;-53
2022/05/09 00:35:58;;;;;;;15.83;10.53;;;13.20;87.70;;;;;;5001289;28;20915;-53
2022/05/09 00:38:28;;;;;;;15.43;12.70;;;13.20;88.20;;;;;;5011831;28;20493;-54
2022/05/09 00:43:40;;;;;;;12.67;11.07;;;13.20;89.70;;;;;;4997203;28;20482;-54
2022/05/09 00:46:08;;;;;;;13.13;11.50;;;13.10;88.80;;;;;;4997874;28;20475;-54
2022/05/09 00:48:35;;;;;;;15.43;12.37;;;13.10;89.20;;;;;;4998735;28;20899;-54
2022/05/09 00:51:03;;;;;;;14.50;13.00;;;13.10;89.50;;;;;;5005261;28;20495;-54
2022/05/09 00:53:34;;;;;;;16.03;14.33;;;13.20;89.40;;;;;;5007504;28;20477;-53
2022/05/09 00:56:06;;;;;;;17.13;14.20;;;13.20;90.30;;;;;;5017138;28;20489;-54
2022/05/09 00:58:38;;;;;;;18.30;13.43;;;13.20;90.80;;;;;;5005494;28;20488;-53
2022/05/09 01:01:05;;;;;;;16.97;14.87;;;13.30;90.80;;;;;;5017006;28;21051;-54
2022/05/09 01:03:40;;;;;;;14.83;12.07;;;13.30;91.00;;;;;;4996928;28;21149;-54
2022/05/09 01:06:07;;;;;;;13.70;12.27;;;13.30;90.70;;;;;;4998356;28;20487;-54
2022/05/09 01:08:36;;;;;;;13.70;10.33;;;13.30;89.50;;;;;;4996539;28;20526;-54
2022/05/09 01:11:04;;;;;;;24.70;11.50;;;13.30;88.40;;;;;;4991084;28;21044;-54
2022/05/09 01:13:35;;;;;;;13.83;12.43;;;13.30;89.10;;;;;;4996988;28;20592;-54
2022/05/09 01:16:04;;;;;;;14.87;13.30;;;13.20;89.30;;;;;;4987318;28;20473;-54
2022/05/09 01:18:31;;;;;;;14.43;12.93;;;13.20;89.90;;;;;;4992250;28;20525;-55
2022/05/09 01:20:58;;;;;;;16.40;13.63;;;13.20;90.20;;;;;;5001379;28;20483;-55
2022/05/09 01:23:26;;;;;;;17.10;13.70;;;13.10;90.30;;;;;;4998252;28;20486;-54
2022/05/09 01:25:53;;;;;;;14.33;12.73;;;13.10;90.10;;;;;;4996419;28;20490;-54
2022/05/09 01:28:19;;;;;;;15.87;13.40;;;13.10;90.10;;;;;;5005105;28;20526;-55
2022/05/09 01:30:54;;;;;;;22.70;14.57;;;13.10;90.10;;;;;;4994834;28;20491;-55
2022/05/09 01:33:25;;;;;;;18.10;15.27;;;13.10;90.30;;;;;;4997624;28;20967;-54
2022/05/09 01:35:55;;;;;;;23.23;14.57;;;13.10;90.50;;;;;;4995909;28;20483;-55
2022/05/09 01:38:31;;;;;;;17.67;15.20;;;13.10;91.30;;;;;;4998748;28;21079;-55
2022/05/09 01:40:58;;;;;;;19.70;15.43;;;13.10;91.70;;;;;;4996126;28;20498;-55
2022/05/09 01:43:34;;;;;;;22.93;16.57;;;13.10;92.00;;;;;;4998820;28;20488;-55
2022/05/09 01:46:01;;;;;;;21.40;16.43;;;13.20;92.30;;;;;;4997849;28;20621;-56
2022/05/09 01:51:15;;;;;;;19.30;16.13;;;13.30;92.30;;;;;;4977529;28;20819;-55
2022/05/09 01:53:45;;;;;;;18.57;15.53;;;13.30;92.10;;;;;;4990250;28;20510;-55
2022/05/09 01:56:13;;;;;;;19.20;14.50;;;13.40;91.70;;;;;;4995502;28;20479;-55
2022/05/09 01:58:40;;;;;;;17.27;15.03;;;13.40;91.40;;;;;;4986718;28;20483;-55
2022/05/09 02:01:07;;;;;;;18.80;15.97;;;13.40;91.40;;;;;;4980692;28;20491;-55
2022/05/09 02:03:34;;;;;;;19.37;15.67;;;13.40;91.50;;;;;;4987855;28;20482;-55
2022/05/09 02:06:01;;;;;;;17.90;14.90;;;13.40;91.80;;;;;;5013871;28;20486;-55
2022/05/09 02:08:27;;;;;;;18.80;16.33;;;13.30;92.10;;;;;;5012201;28;20479;-55
2022/05/09 02:10:55;;;;;;;27.67;15.37;;;13.40;92.20;;;;;;5016612;28;20498;-55
2022/05/09 02:13:22;;;;;;;19.53;17.43;;;13.40;92.10;;;;;;5010639;28;20536;-55
2022/05/09 02:15:49;;;;;;;21.37;15.67;;;13.50;91.90;;;;;;5012541;28;20891;-55
2022/05/09 02:18:15;;;;;;;20.00;15.80;;;13.50;91.70;;;;;;5014631;28;20478;-55
2022/05/09 02:20:42;;;;;;;20.90;16.33;;;13.50;91.40;;;;;;5014841;28;22330;-55
2022/05/09 02:23:09;;;;;;;21.17;16.80;;;13.50;91.30;;;;;;5013365;28;20491;-55
2022/05/09 02:25:36;;;;;;;20.40;15.40;;;13.40;91.10;;;;;;5015593;28;20489;-55
2022/05/09 02:28:06;;;;;;;18.80;16.40;;;13.40;91.10;;;;;;5017260;28;20561;-55
2022/05/09 02:30:33;;;;;;;20.47;15.00;;;13.30;91.40;;;;;;5012157;28;20485;-55
2022/05/09 02:33:00;;;;;;;18.07;14.83;;;13.30;91.50;;;;;;5019265;28;20484;-55
2022/05/09 02:35:27;;;;;;;20.87;16.17;;;13.30;91.60;;;;;;5016558;28;20482;-56
2022/05/09 02:37:53;;;;;;;26.73;17.80;;;13.30;91.70;;;;;;5014956;28;21016;-56
2022/05/09 02:40:20;;;;;;;21.50;15.67;;;13.30;91.80;;;;;;5015032;28;20492;-56
2022/05/09 02:42:47;;;;;;;19.47;16.30;;;13.30;91.90;;;;;;5012652;28;20474;-56
2022/05/09 02:45:15;;;;;;;21.27;16.40;;;13.30;91.90;;;;;;5014354;28;21005;-56
2022/05/09 02:47:42;;;;;;;22.97;16.80;;;13.30;91.70;;;;;;5015281;28;20908;-56
2022/05/09 02:50:10;;;;;;;18.90;15.17;;;13.30;91.20;;;;;;5015558;28;20480;-56
2022/05/09 02:52:38;;;;;;;26.43;15.37;;;13.20;90.80;;;;;;5016796;28;21112;-55
2022/05/09 02:55:06;;;;;;;17.30;12.67;;;13.20;91.00;;;;;;5014665;28;20983;-55
2022/05/09 02:57:33;;;;;;;12.07;10.87;;;13.10;90.80;;;;;;5013662;28;20486;-55
2022/05/09 02:59:59;;;;;;;12.90;10.40;;;13.00;89.50;;;;;;5013745;28;20482;-55
2022/05/09 03:02:27;;;;;;;14.87;13.37;;;12.90;89.50;;;;;;5017125;28;20490;-55
2022/05/09 03:04:53;;;;;;;18.60;13.87;;;12.80;89.60;;;;;;5013127;28;20485;-56
2022/05/09 03:07:20;;;;;;;17.50;13.97;;;12.80;90.30;;;;;;5011722;28;21713;-55
2022/05/09 03:09:49;;;;;;;19.13;13.77;;;12.70;90.10;;;;;;5001129;28;20235;-56
2022/05/09 03:12:18;;;;;;;13.57;11.57;;;12.60;90.20;;;;;;5004368;28;20483;-56
2022/05/09 03:14:45;;;;;;;14.83;13.23;;;12.50;90.00;;;;;;4988332;28;20508;-56
2022/05/09 03:17:12;;;;;;;16.67;13.23;;;12.40;89.90;;;;;;4975196;28;21086;-56
2022/05/09 03:19:40;;;;;;;10.93;9.83;;;12.40;90.10;;;;;;5002233;28;20544;-56
2022/05/09 03:22:07;;;;;;;12.53;10.90;;;12.20;87.70;;;;;;5010157;28;20961;-56
2022/05/09 03:24:34;;;;;;;12.23;10.20;;;12.00;87.20;;;;;;5008928;28;20483;-55
2022/05/09 03:27:02;;;;;;;10.97;9.97;;;11.80;87.70;;;;;;5001625;28;20891;-55
2022/05/09 03:29:29;;;;;;;12.50;11.17;;;11.80;88.10;;;;;;5005588;28;20571;-55
2022/05/09 03:31:55;;;;;;;13.53;9.40;;;11.80;88.30;;;;;;4998592;28;21263;-56
2022/05/09 03:34:22;;;;;;;14.40;12.20;;;11.80;88.60;;;;;;5009099;28;20484;-55
2022/05/09 03:36:51;;;;;;;16.70;11.87;;;11.80;88.90;;;;;;5015143;28;20493;-56
2022/05/09 03:39:18;;;;;;;12.93;11.63;;;11.80;89.40;;;;;;4999407;28;20550;-55
2022/05/09 03:41:45;;;;;;;14.40;11.70;;;11.80;89.00;;;;;;5008018;28;20861;-55
2022/05/09 03:44:12;;;;;;;14.47;10.20;;;11.80;88.50;;;;;;5013020;28;20481;-55
2022/05/09 03:46:38;;;;;;;11.60;10.40;;;11.70;88.40;;;;;;5008245;28;20494;-55
2022/05/09 03:49:05;;;;;;;15.10;11.33;;;11.70;88.80;;;;;;5007422;28;21484;-55
2022/05/09 03:51:32;;;;;;;15.13;10.90;;;11.70;88.90;;;;;;5015398;28;20480;-55
2022/05/09 03:54:00;;;;;;;11.63;10.47;;;11.70;88.40;;;;;;5015564;28;20484;-54
2022/05/09 03:56:27;;;;;;;17.47;11.50;;;11.60;88.00;;;;;;5014814;28;20491;-54
2022/05/09 03:58:53;;;;;;;11.70;10.60;;;11.50;87.40;;;;;;5012900;28;21382;-54
2022/05/09 04:01:20;;;;;;;12.07;10.80;;;11.40;87.30;;;;;;5015576;28;20485;-54
2022/05/09 04:03:47;;;;;;;11.90;10.07;;;11.40;88.00;;;;;;5014137;28;21052;-54
2022/05/09 04:06:14;;;;;;;11.80;10.43;;;11.30;88.80;;;;;;5017128;28;20589;-54
2022/05/09 04:08:40;;;;;;;12.97;10.30;;;11.30;88.00;;;;;;5016067;28;20750;-54
2022/05/09 04:11:08;;;;;;;11.63;10.43;;;11.30;87.80;;;;;;5015581;28;20479;-54
2022/05/09 04:13:35;;;;;;;13.57;10.40;;;11.30;87.50;;;;;;5018450;28;20482;-54
2022/05/09 04:18:47;;;;;;;13.90;11.37;;;11.30;88.30;;;;;;5015643;28;20844;-54
2022/05/09 04:21:15;;;;;;;13.80;11.60;;;11.20;88.30;;;;;;5011597;28;20496;-54
2022/05/09 04:23:41;;;;;;;17.03;11.00;;;11.20;88.40;;;;;;5019807;28;20481;-54
2022/05/09 04:26:10;;;;;;;16.67;11.60;;;11.20;88.80;;;;;;5017225;28;20484;-53
2022/05/09 04:28:36;;;;;;;11.73;10.20;;;11.20;88.60;;;;;;5017536;28;20495;-55
2022/05/09 04:31:03;;;;;;;11.77;10.53;;;11.20;88.00;;;;;;5018006;28;20486;-54
2022/05/09 04:33:30;;;;;;;12.00;10.80;;;11.20;87.90;;;;;;5007747;28;20468;-54
2022/05/09 04:35:58;;;;;;;11.13;10.03;;;11.10;88.00;;;;;;5017228;28;20547;-54
2022/05/09 04:38:24;;;;;;;12.23;10.40;;;11.00;88.10;;;;;;5019093;28;21083;-54
2022/05/09 04:40:54;;;;;;;11.50;10.30;;;11.00;88.20;;;;;;5017378;28;20506;-54
2022/05/09 04:43:23;;;;;;;12.93;10.97;;;11.00;88.40;;;;;;5014068;28;20854;-54
2022/05/09 04:45:51;;;;;;;16.57;11.63;;;11.00;88.40;;;;;;5016135;28;20542;-54
2022/05/09 04:48:19;;;;;;;13.50;10.03;;;11.10;88.40;;;;;;5019141;28;20490;-54
2022/05/09 04:50:45;;;;;;;12.40;10.70;;;11.10;88.20;;;;;;5014180;28;20848;-54
2022/05/09 04:53:12;;;;;;;11.73;10.47;;;11.10;89.10;;;;;;5016848;28;20491;-54
2022/05/09 04:55:39;;;;;;;14.87;11.30;;;11.20;89.40;;;;;;5017067;28;20704;-54
2022/05/09 04:58:07;;;;;;;13.23;9.47;;;11.20;90.00;;;;;;5017167;28;20758;-54
2022/05/09 05:00:35;;;;;;;13.20;9.87;;;11.30;90.30;;;;;;5016416;28;20495;-54
2022/05/09 05:03:01;;;;;;;14.30;10.23;;;11.30;90.20;;;;;;5016501;28;20472;-53
2022/05/09 05:05:28;;;;;;;14.80;11.80;;;11.40;90.10;;;;;;5017961;28;20472;-54
2022/05/09 05:07:55;;;;;;;14.73;13.10;;;11.40;90.30;;;;;;5016328;28;20495;-54
2022/05/09 05:10:22;;;;;;;16.70;11.93;;;11.50;90.90;;;;;;5012854;28;20487;-54
2022/05/09 05:12:49;;;;;;;20.80;12.67;;;11.60;91.20;;;;;;5012885;28;20500;-54
2022/05/09 05:15:16;;;;;;;14.40;12.90;;;11.70;91.70;;;;;;5015854;28;20534;-54
2022/05/09 05:17:44;;;;;;;15.03;13.43;;;11.80;91.60;;;;;;5013259;28;20477;-54
2022/05/09 05:20:14;;;;;;;16.43;12.60;;;12.00;92.90;;;;;;5015940;28;20546;-54
2022/05/09 05:22:43;;;;;;;22.17;14.60;;;12.20;93.30;;;;;;5015575;28;20488;-53
2022/05/09 05:25:12;;;;;;;21.60;16.33;;;12.40;93.50;;;;;;5018182;28;20491;-54
2022/05/09 05:27:39;;;;;;;21.53;16.37;;;12.60;94.00;;;;;;5016669;28;20545;-54
2022/05/09 05:30:08;;;;;;;19.83;15.50;;;12.80;94.30;;;;;;5013585;28;20481;-54
2022/05/09 05:32:36;;;;;;;20.27;14.90;;;13.00;94.40;;;;;;5003721;28;20482;-54
2022/05/09 05:35:06;;;;;;;18.97;14.07;;;13.20;94.50;;;;;;5016180;28;20472;-54
2022/05/09 05:37:33;;;;;;;17.77;14.00;;;13.30;94.60;;;;;;5017859;28;20569;-54
2022/05/09 05:40:00;;;;;;;20.70;14.20;;;13.50;94.50;;;;;;5012670;28;20528;-55
2022/05/09 05:42:28;;;;;;;23.30;15.10;;;13.70;94.70;;;;;;5017040;28;20515;-54
2022/05/09 05:44:55;;;;;;;15.37;13.77;;;13.80;94.70;;;;;;5016051;28;20492;-54
2022/05/09 05:47:22;;;;;;;17.97;14.73;;;13.90;94.80;;;;;;5016526;28;21065;-54
2022/05/09 05:49:50;;;;;;;17.20;13.73;;;14.10;94.80;;;;;;5013227;28;20989;-54
2022/05/09 05:52:18;;;;;;;20.37;14.50;;;14.10;94.90;;;;;;5015616;28;20488;-54
2022/05/09 05:54:46;;;;;;;18.57;14.50;;;14.20;94.90;;;;;;5014512;28;20486;-54
2022/05/09 05:57:19;;;;;;;18.37;13.80;;;14.30;95.10;;;;;;5017087;28;20487;-54
2022/05/09 05:59:50;;;;;;;15.57;13.40;;;14.40;94.70;;;;;;5014657;28;20490;-54
2022/05/09 06:02:17;;;;;;;15.97;13.70;;;14.50;94.70;;;;;;5017891;28;20953;-54
2022/05/09 06:04:44;;;;;;;19.03;14.60;;;14.70;94.90;;;;;;5013721;28;20828;-54
2022/05/09 06:07:12;;;;;;;20.90;14.20;;;14.80;94.90;;;;;;5012280;28;20498;-54
2022/05/09 06:09:41;;;;;;;20.30;13.30;;;15.00;95.10;;;;;;5011899;28;20846;-54
2022/05/09 06:12:09;;;;;;;23.03;14.40;;;15.20;95.20;;;;;;5015833;28;21066;-54
2022/05/09 06:14:37;;;;;;;20.70;14.23;;;15.30;95.10;;;;;;5008217;28;20920;-54
2022/05/09 06:17:05;;;;;;;23.60;14.33;;;15.50;94.80;;;;;;5011022;28;20486;-54
2022/05/09 06:19:32;;;;;;;19.30;14.07;;;15.60;94.60;;;;;;5011302;28;20471;-54
2022/05/09 06:21:59;;;;;;;13.53;12.17;;;15.70;94.40;;;;;;5011755;28;20483;-54
2022/05/09 06:24:26;;;;;;;17.67;13.47;;;15.80;94.60;;;;;;5016322;28;20584;-54
2022/05/09 06:26:54;;;;;;;18.00;13.40;;;16.00;94.10;;;;;;5013993;28;20851;-54
2022/05/09 06:29:21;;;;;;;16.57;13.80;;;16.10;94.20;;;;;;5013609;28;20973;-54
2022/05/09 06:31:48;;;;;;;24.00;14.10;;;16.30;94.30;;;;;;5015099;28;20660;-55
2022/05/09 06:34:15;;;;;;;18.80;15.53;;;16.40;94.20;;;;;;5016304;28;20842;-53
2022/05/09 06:36:44;;;;;;;15.73;13.33;;;16.50;94.40;;;;;;5015110;28;20518;-55
2022/05/09 06:39:12;;;;;;;17.40;12.60;;;16.70;94.10;;;;;;5003678;28;20563;-55
2022/05/09 06:41:39;;;;;;;17.63;13.93;;;16.80;93.50;;;;;;5003749;28;20762;-55
2022/05/09 06:44:07;;;;;;;14.80;12.33;;;17.00;93.30;;;;;;5015950;28;20578;-55
2022/05/09 06:46:34;;;;;;;14.67;11.77;;;17.20;93.40;;;;;;5016091;28;20481;-56
2022/05/09 06:49:01;;;;;;;15.23;12.60;;;17.40;93.00;;;;;;5014733;28;20607;-56
2022/05/09 06:51:28;;;;;;;13.33;12.03;;;17.60;93.10;;;;;;5014176;28;20583;-56
2022/05/09 06:53:55;;;;;;;13.97;11.90;;;17.90;92.80;;;;;;5013637;28;20489;-56
2022/05/09 06:56:22;;;;;;;18.63;13.43;;;18.20;92.90;;;;;;5016096;28;20479;-56
2022/05/09 06:58:49;;;;;;;13.57;12.23;;;18.50;92.20;;;;;;5014584;28;20485;-56
2022/05/09 07:01:18;;;;;;;17.80;12.37;;;18.80;92.20;;;;;;5015489;28;20969;-56
2022/05/09 07:03:46;;;;;;;14.13;12.73;;;19.00;91.70;;;;;;5014333;28;20584;-56
2022/05/09 07:06:12;;;;;;;13.03;11.57;;;19.30;91.80;;;;;;5014321;28;20480;-57
2022/05/09 07:08:40;;;;;;;14.07;12.60;;;19.50;90.90;;;;;;5013932;28;20489;-57
2022/05/09 07:11:07;;;;;;;15.40;12.87;;;19.70;91.10;;;;;;5012079;28;21034;-56
2022/05/09 07:13:34;;;;;;;15.13;12.00;;;19.90;90.70;;;;;;5016251;28;20744;-57
2022/05/09 07:16:00;;;;;;;24.43;12.77;;;20.10;90.00;;;;;;5015140;28;20564;-57
2022/05/09 07:18:29;;;;;;;15.53;12.40;;;20.20;90.10;;;;;;5016178;28;21049;-57
2022/05/09 07:20:56;;;;;;;15.30;11.37;;;20.40;90.70;;;;;;5008199;28;20484;-57
2022/05/09 07:23:23;;;;;;;12.53;11.37;;;20.70;90.50;;;;;;5019108;28;20483;-57
2022/05/09 07:25:51;;;;;;;13.33;11.60;;;20.80;89.60;;;;;;5017353;28;20488;-56
2022/05/09 07:28:21;;;;;;;14.57;10.90;;;21.10;88.70;;;;;;5017614;28;20912;-57
2022/05/09 07:30:48;;;;;;;13.20;11.90;;;21.30;88.90;;;;;;5012683;28;20506;-57
2022/05/09 07:33:17;;;;;;;12.83;11.47;;;21.50;88.40;;;;;;5013440;28;20488;-57
2022/05/09 07:35:45;;;;;;;14.60;11.40;;;21.70;88.00;;;;;;5012906;28;20534;-56
2022/05/09 07:38:12;;;;;;;14.17;12.80;;;21.90;86.70;;;;;;5014675;28;20483;-57
2022/05/09 07:40:40;;;;;;;13.57;12.10;;;22.00;86.70;;;;;;5015419;28;20482;-56
2022/05/09 07:43:09;;;;;;;11.43;10.20;;;22.20;87.10;;;;;;5019106;28;20492;-56
2022/05/09 07:45:36;;;;;;;12.47;10.20;;;22.20;84.50;;;;;;5019256;28;20567;-56
2022/05/09 07:48:03;;;;;;;12.73;11.43;;;22.20;83.70;;;;;;5019062;28;20718;-55
2022/05/09 07:50:30;;;;;;;13.10;11.83;;;22.20;84.80;;;;;;5016192;28;20487;-55
2022/05/09 07:52:58;;;;;;;11.90;10.70;;;22.40;84.60;;;;;;5017561;28;20505;-56
2022/05/09 07:55:25;;;;;;;17.93;11.40;;;22.50;84.70;;;;;;5018092;28;20491;-55
2022/05/09 07:57:51;;;;;;;12.57;11.40;;;22.70;85.40;;;;;;5018981;28;20511;-55
2022/05/09 08:00:19;;;;;;;15.40;11.37;;;22.90;85.50;;;;;;5017860;28;20546;-55
2022/05/09 08:02:46;;;;;;;14.30;11.20;;;23.10;86.30;;;;;;5018112;28;20971;-56
2022/05/09 08:05:14;;;;;;;15.30;11.17;;;23.30;84.50;;;;;;5019198;28;20505;-55
2022/05/09 08:07:41;;;;;;;13.00;11.53;;;23.50;83.40;;;;;;5020880;28;20472;-56
2022/05/09 08:10:11;;;;;;;14.47;10.97;;;23.60;82.60;;;;;;5016053;28;20843;-55
2022/05/09 08:12:39;;;;;;;10.87;9.90;;;23.70;83.10;;;;;;5018080;28;20480;-55
2022/05/09 08:15:08;;;;;;;12.03;10.83;;;23.70;82.40;;;;;;5017335;28;20694;-55
2022/05/09 08:17:35;;;;;;;12.00;10.80;;;23.80;82.40;;;;;;5016790;28;20873;-55
2022/05/09 08:20:01;;;;;;;12.40;11.17;;;23.90;82.80;;;;;;5015597;28;20485;-56
2022/05/09 08:22:31;;;;;;;11.60;10.60;;;24.00;82.30;;;;;;5019622;28;20894;-56
2022/05/09 08:24:58;;;;;;;10.60;9.60;;;24.10;83.00;;;;;;5015863;28;20488;-55
2022/05/09 08:27:26;;;;;;;11.00;10.10;;;24.20;81.50;;;;;;5014726;28;20503;-55
2022/05/09 08:29:56;;;;;;;11.30;10.20;;;24.30;83.20;;;;;;5005763;28;20481;-55
2022/05/09 08:32:23;;;;;;;11.40;10.40;;;24.30;82.30;;;;;;5018278;28;20496;-56
2022/05/09 08:34:51;;;;;;;15.57;11.50;;;24.40;81.40;;;;;;5016410;28;20488;-56
2022/05/09 08:37:18;;;;;;;11.93;10.83;;;24.60;80.60;;;;;;5018972;28;20486;-56
2022/05/09 08:39:45;;;;;;;11.30;10.27;;;24.70;79.40;;;;;;5004557;28;20468;-55
2022/05/09 08:42:18;;;;;;;11.90;10.73;;;24.80;81.10;;;;;;5018146;28;20487;-55
2022/05/09 08:45:05;;;;;;;12.03;10.80;;;24.90;79.10;;;;;;5014851;28;21174;-56
2022/05/09 08:48:12;;;;;;;13.00;10.80;;;24.90;78.90;;;;;;5018099;28;20851;-56
2022/05/09 08:50:52;;;;;;;15.60;9.80;;;25.10;80.50;;;;;;4992887;28;20475;-55
2022/05/09 08:53:23;;;;;;;10.83;9.80;;;25.30;79.20;;;;;;5008090;28;20476;-55
2022/05/09 08:55:51;;;;;;;13.20;10.80;;;25.40;81.50;;;;;;5016304;28;20473;-56
2022/05/09 08:58:32;;;;;;;11.30;9.53;;;25.70;79.90;;;;;;5019025;28;20559;-55
2022/05/09 09:01:03;;;;;;;11.20;9.77;;;25.90;79.20;;;;;;5013116;28;20974;-55
2022/05/09 09:03:34;;;;;;;12.27;11.07;;;25.90;78.70;;;;;;5018350;28;20477;-56
2022/05/09 09:06:05;;;;;;;11.03;9.73;;;26.10;79.90;;;;;;5017304;28;20515;-56
2022/05/09 09:08:41;;;;;;;10.03;9.03;;;26.10;77.80;;;;;;5010243;28;20542;-56
2022/05/09 09:11:13;;;;;;;10.50;9.33;;;26.20;78.60;;;;;;5000992;28;20481;-56
2022/05/09 09:13:57;;;;;;;13.33;10.00;;;26.30;77.90;;;;;;5020256;28;20564;-56
2022/05/09 09:16:54;;;;;;;9.47;8.47;;;26.40;77.10;;;;;;5013786;28;20484;-56
2022/05/09 09:19:45;;;;;;;9.50;8.70;;;26.40;75.70;;;;;;5005114;28;20455;-56
2022/05/09 09:22:23;;;;;;;11.03;9.83;;;26.60;76.30;;;;;;5017326;28;20463;-55
2022/05/09 09:25:21;;;;;;;10.87;9.87;;;26.60;77.10;;;;;;5017338;28;20551;-55
2022/05/09 09:27:53;;;;;;;11.10;8.70;;;26.60;75.80;;;;;;4997149;28;20488;-56
2022/05/09 09:30:23;;;;;;;9.53;8.63;;;26.60;75.40;;;;;;5004320;28;20559;-56
2022/05/09 09:32:57;;;;;;;9.83;8.83;;;26.70;78.60;;;;;;5014329;28;20492;-57
2022/05/09 09:35:32;;;;;;;18.57;9.80;;;26.90;76.90;;;;;;5006716;28;20484;-56
2022/05/09 09:38:06;;;;;;;12.10;9.57;;;27.00;74.80;;;;;;5014476;28;20503;-57
2022/05/09 09:40:33;;;;;;;9.70;8.80;;;27.00;74.30;;;;;;5013642;28;20567;-56
2022/05/09 09:43:00;;;;;;;9.43;8.53;;;26.80;76.30;;;;;;5014024;28;21130;-56
2022/05/09 09:45:31;;;;;;;9.40;8.20;;;26.90;77.10;;;;;;5005199;28;20483;-56
2022/05/09 09:48:19;;;;;;;9.07;8.00;;;27.10;75.80;;;;;;5023158;28;20897;-55
2022/05/09 09:50:56;;;;;;;8.50;7.90;;;27.30;76.70;;;;;;5015308;28;20461;-55
2022/05/09 09:53:41;;;;;;;8.87;8.17;;;27.30;75.30;;;;;;4999229;28;20586;-55
2022/05/09 09:56:26;;;;;;;9.50;8.27;;;27.30;75.70;;;;;;5017170;28;21091;-56
2022/05/09 09:58:57;;;;;;;8.13;7.43;;;27.40;73.40;;;;;;5013768;28;20904;-55
2022/05/09 10:01:25;;;;;;;9.10;8.47;;;27.60;74.20;;;;;;5006362;28;20927;-55
2022/05/09 10:04:09;;;;;;;10.47;8.40;;;27.60;74.30;;;;;;5017054;28;20480;-55
2022/05/09 10:06:37;;;;;;;9.00;8.20;;;27.80;73.80;;;;;;5015430;28;20477;-55
2022/05/09 10:09:06;;;;;;;8.83;8.13;;;27.80;74.10;;;;;;5015276;28;21020;-55
2022/05/09 10:11:34;;;;;;;8.67;7.80;;;27.90;73.30;;;;;;5016070;28;20477;-56
2022/05/09 10:14:03;;;;;;;9.40;8.43;;;27.90;71.80;;;;;;5014692;28;20511;-55
2022/05/09 10:16:33;;;;;;;10.13;7.60;;;27.90;71.80;;;;;;5012696;28;20484;-55
2022/05/09 10:19:01;;;;;;;10.07;9.13;;;27.90;73.60;;;;;;5011212;28;20683;-54
2022/05/09 10:27:16;;;;;;;9.50;8.57;;;27.70;74.80;;;;;;5015767;28;20534;-55
2022/05/09 10:29:48;;;;;;;8.97;8.17;;;27.70;73.50;;;;;;5010047;28;20530;-55
2022/05/09 10:32:20;;;;;;;9.30;7.70;;;27.90;70.90;;;;;;5016652;28;20479;-55
2022/05/09 10:34:55;;;;;;;8.43;7.73;;;27.80;68.60;;;;;;5013766;28;20456;-54
2022/05/09 10:37:29;;;;;;;7.00;6.30;;;27.90;71.20;;;;;;5016612;28;20476;-55
2022/05/09 10:40:03;;;;;;;7.53;5.83;;;27.80;64.00;;;;;;5012802;28;20473;-55
2022/05/09 10:42:38;;;;;;;8.50;7.80;;;27.30;61.40;;;;;;5011443;28;20888;-55
2022/05/09 10:45:11;;;;;;;9.13;8.10;;;26.70;70.30;;;;;;5015066;28;20546;-54
2022/05/09 10:47:45;;;;;;;8.37;7.57;;;26.90;72.20;;;;;;5013571;28;20443;-55
2022/05/09 10:50:18;;;;;;;7.90;7.10;;;27.00;71.30;;;;;;5014789;28;20788;-56
2022/05/09 10:52:59;;;;;;;7.83;7.03;;;27.20;72.50;;;;;;5006141;28;20488;-55
2022/05/09 10:55:33;;;;;;;6.23;5.73;;;27.30;68.10;;;;;;4987307;28;20491;-56
2022/05/09 10:58:05;;;;;;;7.07;6.40;;;26.90;59.50;;;;;;5009734;28;20462;-55
2022/05/09 11:00:35;;;;;;;6.93;6.10;;;27.10;67.20;;;;;;5008548;28;20458;-55
2022/05/09 11:03:11;;;;;;;6.13;5.70;;;27.20;65.70;;;;;;5015644;28;20459;-55
2022/05/09 11:05:53;;;;;;;7.20;6.60;;;27.30;65.50;;;;;;5015638;28;20484;-55
2022/05/09 11:08:29;;;;;;;6.53;5.93;;;27.10;60.40;;;;;;5013932;28;20494;-55
2022/05/09 11:11:05;;;;;;;7.23;6.53;;;27.00;66.40;;;;;;4998938;28;20442;-55
2022/05/09 11:13:45;;;;;;;6.10;5.33;;;27.30;65.80;;;;;;5008816;28;20472;-55
2022/05/09 11:16:19;;;;;;;5.73;5.30;;;27.60;64.60;;;;;;5017420;28;20499;-56
2022/05/09 11:19:04;;;;;;;7.63;6.83;;;27.80;63.70;;;;;;5014834;28;20463;-55
2022/05/09 11:21:41;;;;;;;6.67;6.17;;;27.90;63.00;;;;;;5007023;28;20568;-55
2022/05/09 11:24:25;;;;;;;6.20;5.70;;;28.00;62.10;;;;;;5019186;28;20538;-55
2022/05/09 11:27:00;;;;;;;5.80;5.30;;;28.00;64.40;;;;;;5010213;28;20487;-54
2022/05/09 11:29:47;;;;;;;6.70;6.20;;;28.00;62.70;;;;;;4974290;28;20850;-55
2022/05/09 11:32:29;;;;;;;7.17;6.47;;;28.00;61.10;;;;;;5023493;28;20484;-55
2022/05/09 11:35:33;;;;;;;6.70;6.03;;;28.10;61.80;;;;;;5002123;28;20475;-55
2022/05/09 11:38:11;;;;;;;9.90;5.87;;;28.30;61.80;;;;;;4948110;28;20456;-55
2022/05/09 11:40:49;;;;;;;7.10;6.50;;;28.40;61.00;;;;;;4946984;28;21228;-55
2022/05/09 11:43:32;;;;;;;6.60;6.00;;;28.50;63.00;;;;;;4984444;28;20459;-55
2022/05/09 11:46:08;;;;;;;6.27;5.67;;;28.50;61.60;;;;;;4998171;28;20524;-54
2022/05/09 11:48:47;;;;;;;7.53;6.10;;;28.60;63.90;;;;;;5008030;28;21251;-54
2022/05/09 11:51:27;;;;;;;8.60;5.13;;;28.50;58.90;;;;;;5016624;28;20916;-54
2022/05/09 11:53:58;;;;;;;6.13;5.57;;;28.40;62.90;;;;;;5017767;28;20530;-54
2022/05/09 11:56:27;;;;;;;5.83;5.33;;;28.50;60.80;;;;;;5018463;28;20472;-55
2022/05/09 11:58:54;;;;;;;5.97;5.57;;;28.50;60.00;;;;;;5008148;28;20488;-54
2022/05/09 12:01:53;;;;;;;6.17;5.23;;;28.60;59.90;;;;;;5016952;28;20491;-55
2022/05/09 12:04:30;;;;;;;6.53;5.80;;;28.60;61.60;;;;;;5003388;28;20491;-54
2022/05/09 12:06:56;;;;;;;6.33;5.77;;;28.30;57.70;;;;;;5017631;28;20459;-55
2022/05/09 12:10:03;;;;;;;6.40;4.97;;;28.50;59.60;;;;;;5014614;28;20893;-55
2022/05/09 12:12:54;;;;;;;7.73;5.53;;;28.70;59.20;;;;;;5004011;28;20942;-55
2022/05/09 12:15:47;;;;;;;5.77;5.27;;;28.40;55.20;;;;;;5016133;28;20481;-54
2022/05/09 12:18:26;;;;;;;5.70;5.20;;;27.80;54.50;;;;;;5017977;28;20549;-55
2022/05/09 12:21:24;;;;;;;7.13;6.43;;;27.30;55.20;;;;;;5016103;28;20999;-55
2022/05/09 12:24:30;;;;;;;6.20;5.00;;;27.00;56.10;;;;;;5014816;28;20464;-53
2022/05/09 12:26:57;;;;;;;5.70;5.30;;;26.70;56.00;;;;;;5012012;28;20492;-53
2022/05/09 12:29:50;;;;;;;4.90;4.50;;;26.80;60.30;;;;;;5017127;28;20478;-54
2022/05/09 12:32:19;;;;;;;5.60;5.00;;;26.90;57.50;;;;;;5017281;28;20837;-54
2022/05/09 12:34:47;;;;;;;9.80;5.60;;;27.30;59.90;;;;;;5016130;28;20479;-55
2022/05/09 12:37:19;;;;;;;7.63;6.93;;;27.60;59.10;;;;;;5016375;28;20613;-59
2022/05/09 12:39:47;;;;;;;7.80;5.40;;;27.40;56.10;;;;;;5016605;28;20484;-53
2022/05/09 12:42:27;;;;;;;5.00;4.60;;;26.80;54.40;;;;;;5018061;28;20551;-55
2022/05/09 12:44:57;;;;;;;6.50;5.60;;;27.10;57.80;;;;;;5014357;28;20492;-54
2022/05/09 12:47:29;;;;;;;6.27;5.77;;;27.00;58.00;;;;;;5006735;28;20600;-54
2022/05/09 12:49:58;;;;;;;5.10;4.70;;;27.20;58.90;;;;;;5012718;28;20487;-55
2022/05/09 12:52:29;;;;;;;5.60;5.10;;;27.40;58.90;;;;;;5018386;28;20459;-55
2022/05/09 12:57:43;;;;;;;6.60;5.87;;;28.10;57.80;;;;;;5006764;28;20471;-55
2022/05/09 13:00:14;;;;;;;7.00;6.40;;;28.00;60.10;;;;;;5015762;28;20981;-55
2022/05/09 13:02:41;;;;;;;5.93;5.20;;;28.00;57.40;;;;;;5015930;28;20822;-54
2022/05/09 13:05:10;;;;;;;6.20;5.60;;;28.20;59.40;;;;;;5013538;28;20985;-55
2022/05/09 13:07:58;;;;;;;5.40;4.90;;;28.50;57.20;;;;;;5016268;28;20455;-55